createdAt,value
2023-03-13T00:01:47.279Z,79.28
2023-03-13T00:04:20.356Z,78.97
2023-03-13T00:06:53.086Z,78.88
2023-03-13T00:09:27.265Z,78.79
2023-03-13T00:11:59.965Z,79.05
2023-03-13T00:14:34.406Z,78.65
2023-03-13T00:17:07.502Z,78.03
2023-03-13T00:19:40.452Z,77.98
2023-03-13T00:22:13.118Z,78.69
2023-03-13T00:24:47.054Z,79.05
2023-03-13T00:27:19.689Z,78.86
2023-03-13T00:29:53.809Z,78.84
2023-03-13T00:32:26.539Z,78.67
2023-03-13T00:34:59.261Z,79.11
2023-03-13T00:37:32.974Z,78.29
2023-03-13T00:40:06.135Z,77.58
2023-03-13T00:42:38.946Z,78.57
2023-03-13T00:45:13.969Z,78.59
2023-03-13T00:47:46.682Z,78.66
2023-03-13T00:50:19.466Z,78.54
2023-03-13T00:52:52.111Z,77.71
2023-03-13T00:55:24.796Z,77.82
2023-03-13T00:57:57.511Z,78.07
2023-03-13T01:00:32.394Z,78.92
2023-03-13T01:03:05.227Z,78.55
2023-03-13T01:05:38.095Z,78.29
2023-03-13T01:08:10.876Z,78.08
2023-03-13T01:10:43.590Z,78.10
2023-03-13T01:13:16.443Z,78.63
2023-03-13T01:15:50.658Z,77.82
2023-03-13T01:18:23.395Z,78.57
2023-03-13T01:20:56.154Z,78.02
2023-03-13T01:23:29.292Z,78.91
2023-03-13T01:26:02.089Z,79.36
2023-03-13T01:28:35.286Z,78.81
2023-03-13T01:31:17.776Z,78.80
2023-03-13T01:33:51.324Z,78.27
2023-03-13T01:36:24.252Z,78.88
2023-03-13T01:38:57.965Z,79.37
2023-03-13T01:41:31.318Z,79.34
2023-03-13T01:44:04.172Z,79.48
2023-03-13T01:46:38.531Z,78.64
2023-03-13T01:49:13.172Z,78.69
2023-03-13T01:51:50.629Z,78.66
2023-03-13T01:54:24.837Z,78.66
2023-03-13T01:56:59.376Z,78.55
2023-03-13T01:59:33.475Z,78.80
2023-03-13T02:02:08.379Z,78.59
2023-03-13T02:04:45.407Z,78.46
2023-03-13T02:07:19.662Z,78.81
2023-03-13T02:09:53.783Z,79.25
2023-03-13T02:12:30.426Z,78.63
2023-03-13T02:15:05.330Z,78.32
2023-03-13T02:17:39.980Z,78.44
2023-03-13T02:20:13.610Z,78.60
2023-03-13T02:22:48.665Z,77.98
2023-03-13T02:25:23.734Z,79.45
2023-03-13T02:28:00.114Z,78.95
2023-03-13T02:30:33.869Z,78.51
2023-03-13T02:33:06.639Z,78.34
2023-03-13T02:35:39.679Z,77.22
2023-03-13T02:38:14.156Z,77.58
2023-03-13T02:40:47.976Z,78.12
2023-03-13T02:43:23.640Z,77.75
2023-03-13T02:46:03.206Z,77.66
2023-03-13T02:48:37.233Z,77.89
2023-03-13T02:51:13.646Z,77.77
2023-03-13T02:53:47.953Z,78.27
2023-03-13T02:56:22.781Z,77.91
2023-03-13T02:58:57.220Z,77.84
2023-03-13T03:01:29.876Z,77.24
2023-03-13T03:04:02.668Z,77.81
2023-03-13T03:06:35.469Z,77.21
2023-03-13T03:09:09.560Z,77.14
2023-03-13T03:11:42.272Z,77.50
2023-03-13T03:14:16.843Z,78.06
2023-03-13T03:16:49.547Z,78.54
2023-03-13T03:19:22.275Z,78.44
2023-03-13T03:21:54.876Z,78.22
2023-03-13T03:24:27.701Z,77.88
2023-03-13T03:27:00.730Z,78.19
2023-03-13T03:29:35.114Z,78.61
2023-03-13T03:32:07.894Z,78.85
2023-03-13T03:34:41.062Z,79.36
2023-03-13T03:37:13.930Z,78.57
2023-03-13T03:39:46.744Z,78.44
2023-03-13T03:42:19.377Z,79.44
2023-03-13T03:44:53.591Z,78.58
2023-03-13T03:47:26.359Z,78.49
2023-03-13T03:49:59.220Z,79.41
2023-03-13T03:52:31.923Z,78.43
2023-03-13T03:55:04.905Z,78.23
2023-03-13T03:57:37.568Z,78.82
2023-03-13T04:00:15.820Z,78.53
2023-03-13T04:02:49.668Z,78.16
2023-03-13T04:05:22.716Z,78.09
2023-03-13T04:07:55.525Z,77.41
2023-03-13T04:10:28.401Z,78.41
2023-03-13T04:13:01.114Z,77.78
2023-03-13T04:15:35.475Z,78.55
2023-03-13T04:18:08.198Z,78.91
2023-03-13T04:20:41.260Z,79.00
2023-03-13T04:23:14.067Z,79.03
2023-03-13T04:25:46.820Z,78.27
2023-03-13T04:28:19.479Z,77.97
2023-03-13T04:30:57.529Z,78.12
2023-03-13T04:33:30.254Z,78.07
2023-03-13T04:36:03.070Z,78.50
2023-03-13T04:38:35.773Z,79.40
2023-03-13T04:41:08.843Z,78.59
2023-03-13T04:43:41.539Z,78.63
2023-03-13T04:46:15.834Z,78.77
2023-03-13T04:48:48.483Z,78.68
2023-03-13T04:51:21.281Z,78.45
2023-03-13T04:53:54.009Z,78.13
2023-03-13T04:56:42.324Z,77.41
2023-03-13T04:59:16.708Z,77.50
2023-03-13T05:01:50.817Z,78.56
2023-03-13T05:04:23.452Z,78.62
2023-03-13T05:06:56.338Z,78.33
2023-03-13T05:09:28.970Z,79.57
2023-03-13T05:12:01.912Z,78.65
2023-03-13T05:14:34.597Z,78.49
2023-03-13T05:17:08.708Z,78.64
2023-03-13T05:19:41.687Z,79.10
2023-03-13T05:22:14.501Z,78.22
2023-03-13T05:24:47.357Z,78.54
2023-03-13T05:27:20.223Z,78.57
2023-03-13T05:29:52.879Z,78.93
2023-03-13T05:32:27.366Z,79.40
2023-03-13T05:35:00.119Z,78.78
2023-03-13T05:37:32.821Z,78.45
2023-03-13T05:40:06.442Z,78.69
2023-03-13T05:42:39.183Z,79.03
2023-03-13T05:45:12.594Z,79.51
2023-03-13T05:47:46.687Z,78.89
2023-03-13T05:50:19.459Z,77.70
2023-03-13T05:52:52.505Z,78.54
2023-03-13T05:55:25.132Z,79.38
2023-03-13T05:57:57.887Z,78.74
2023-03-13T06:00:30.519Z,78.68
2023-03-13T06:03:04.859Z,79.04
2023-03-13T06:05:37.506Z,79.00
2023-03-13T06:08:10.213Z,78.38
2023-03-13T06:10:42.854Z,78.10
2023-03-13T06:13:20.003Z,78.86
2023-03-13T06:15:53.885Z,78.47
2023-03-13T06:18:28.522Z,78.03
2023-03-13T06:21:02.713Z,78.46
2023-03-13T06:23:35.931Z,78.40
2023-03-13T06:26:08.685Z,78.67
2023-03-13T06:28:41.495Z,79.22
2023-03-13T06:31:14.233Z,79.59
2023-03-13T06:33:49.746Z,77.90
2023-03-13T06:36:23.908Z,78.53
2023-03-13T06:38:56.788Z,79.39
2023-03-13T06:41:29.447Z,79.40
2023-03-13T06:44:02.298Z,79.34
2023-03-13T06:46:35.235Z,79.12
2023-03-13T06:49:09.528Z,79.24
2023-03-13T06:51:42.456Z,79.63
2023-03-13T06:54:15.237Z,79.86
2023-03-13T06:56:47.873Z,78.74
2023-03-13T06:59:20.534Z,78.08
2023-03-13T07:01:53.154Z,78.54
2023-03-13T07:04:27.230Z,79.10
2023-03-13T07:07:00.002Z,78.98
2023-03-13T07:09:32.820Z,78.35
2023-03-13T07:12:05.747Z,79.55
2023-03-13T07:14:38.407Z,79.57
2023-03-13T07:17:11.102Z,80.57
2023-03-13T07:19:45.457Z,79.08
2023-03-13T07:22:18.355Z,80.43
2023-03-13T07:24:51.097Z,80.79
2023-03-13T07:27:23.849Z,81.49
2023-03-13T07:29:56.885Z,81.92
2023-03-13T07:32:32.564Z,80.89
2023-03-13T07:35:07.819Z,80.84
2023-03-13T07:37:40.468Z,81.12
2023-03-13T07:40:13.501Z,80.62
2023-03-13T07:42:46.209Z,82.75
2023-03-13T07:45:18.996Z,81.92
2023-03-13T07:47:51.589Z,81.48
2023-03-13T07:50:26.046Z,80.45
2023-03-13T07:52:58.748Z,80.94
2023-03-13T07:55:31.406Z,80.86
2023-03-13T07:58:04.256Z,76.33
2023-03-13T08:00:36.926Z,79.54
2023-03-13T08:03:10.255Z,80.91
2023-03-13T08:05:44.676Z,79.04
2023-03-13T08:08:17.389Z,80.08
2023-03-13T08:10:50.439Z,79.80
2023-03-13T08:13:23.172Z,81.50
2023-03-13T08:16:02.724Z,80.63
2023-03-13T08:18:35.993Z,80.05
2023-03-13T08:21:11.196Z,78.25
2023-03-13T08:23:44.170Z,79.80
2023-03-13T08:26:18.147Z,80.07
2023-03-13T08:28:53.853Z,80.09
2023-03-13T08:31:27.749Z,80.31
2023-03-13T08:34:00.684Z,77.94
2023-03-13T08:36:35.592Z,79.72
2023-03-13T08:39:09.335Z,80.07
2023-03-13T08:41:42.083Z,78.55
2023-03-13T08:44:16.184Z,78.09
2023-03-13T08:46:49.320Z,79.46
2023-03-13T08:49:22.092Z,80.13
2023-03-13T08:51:56.761Z,80.37
2023-03-13T08:54:29.555Z,78.27
2023-03-13T08:57:02.452Z,77.23
2023-03-13T08:59:35.232Z,78.51
2023-03-13T09:02:08.002Z,78.00
2023-03-13T09:04:40.787Z,76.25
2023-03-13T09:07:14.913Z,76.65
2023-03-13T09:09:47.591Z,75.27
2023-03-13T09:12:30.415Z,76.50
2023-03-13T09:15:04.041Z,76.67
2023-03-13T09:17:37.217Z,77.03
2023-03-13T09:20:10.782Z,77.33
2023-03-13T09:22:44.914Z,77.45
2023-03-13T09:25:17.688Z,76.62
2023-03-13T09:27:50.416Z,77.69
2023-03-13T09:30:23.276Z,78.43
2023-03-13T09:32:56.104Z,79.08
2023-03-13T09:35:28.781Z,78.16
2023-03-13T09:38:02.882Z,78.46
2023-03-13T09:40:38.629Z,78.64
2023-03-13T09:43:20.806Z,77.81
2023-03-13T09:45:56.222Z,78.28
2023-03-13T09:48:31.627Z,78.68
2023-03-13T09:51:07.438Z,78.61
2023-03-13T09:53:43.336Z,78.23
2023-03-13T09:56:18.257Z,77.99
2023-03-13T09:58:53.699Z,76.64
2023-03-13T10:01:29.758Z,78.81
2023-03-13T10:04:06.871Z,78.75
2023-03-13T10:06:41.481Z,78.68
2023-03-13T10:09:20.463Z,76.39
2023-03-13T10:11:58.867Z,78.47
2023-03-13T10:14:32.977Z,78.04
2023-03-13T10:17:08.362Z,78.07
2023-03-13T10:19:43.668Z,78.90
2023-03-13T10:22:20.361Z,78.21
2023-03-13T10:24:58.332Z,76.84
2023-03-13T10:27:31.103Z,78.72
2023-03-13T10:30:03.974Z,79.26
2023-03-13T10:32:36.698Z,79.16
2023-03-13T10:35:10.958Z,80.68
2023-03-13T10:37:44.440Z,81.21
2023-03-13T10:40:24.070Z,80.33
2023-03-13T10:43:02.579Z,81.43
2023-03-13T10:45:36.983Z,81.46
2023-03-13T10:48:14.351Z,80.94
2023-03-13T10:50:47.951Z,79.31
2023-03-13T10:53:25.699Z,81.23
2023-03-13T10:56:04.395Z,80.21
2023-03-13T10:58:39.106Z,80.56
2023-03-13T11:01:22.951Z,81.39
2023-03-13T11:03:57.412Z,80.21
2023-03-13T11:06:31.277Z,79.38
2023-03-13T11:09:05.610Z,79.74
2023-03-13T11:11:46.451Z,79.06
2023-03-13T11:14:20.102Z,78.90
2023-03-13T11:16:55.717Z,78.57
2023-03-13T11:19:36.220Z,77.11
2023-03-13T11:22:14.496Z,75.74
2023-03-13T11:24:50.893Z,77.38
2023-03-13T11:27:29.873Z,77.80
2023-03-13T11:30:12.785Z,78.41
2023-03-13T11:32:49.196Z,78.86
2023-03-13T11:35:29.151Z,80.38
2023-03-13T11:38:04.035Z,79.06
2023-03-13T11:40:39.776Z,80.31
2023-03-13T11:43:30.513Z,80.68
2023-03-13T11:46:23.085Z,81.59
2023-03-13T11:49:13.912Z,81.66
2023-03-13T11:51:55.273Z,81.22
2023-03-13T11:54:46.128Z,79.65
2023-03-13T11:57:23.538Z,79.63
2023-03-13T12:00:06.086Z,78.96
2023-03-13T12:02:41.722Z,78.79
2023-03-13T12:05:17.820Z,79.93
2023-03-13T12:07:52.799Z,78.55
2023-03-13T12:10:28.955Z,77.90
2023-03-13T12:13:05.235Z,77.45
2023-03-13T12:15:39.725Z,77.01
2023-03-13T12:18:19.156Z,77.73
2023-03-13T12:20:56.150Z,77.35
2023-03-13T12:23:33.950Z,78.38
2023-03-13T12:26:08.790Z,77.76
2023-03-13T12:28:44.921Z,77.23
2023-03-13T12:31:25.493Z,77.68
2023-03-13T12:34:04.593Z,78.52
2023-03-13T12:36:41.719Z,79.13
2023-03-13T12:39:22.104Z,78.49
2023-03-13T12:41:58.541Z,79.38
2023-03-13T12:44:32.137Z,79.13
2023-03-13T12:47:09.744Z,79.20
2023-03-13T12:50:06.559Z,79.44
2023-03-13T12:52:57.135Z,79.11
2023-03-13T12:55:34.999Z,79.36
2023-03-13T12:58:25.161Z,78.96
2023-03-13T13:00:59.637Z,78.96
2023-03-13T13:03:36.496Z,78.53
2023-03-13T13:06:12.562Z,78.24
2023-03-13T13:08:48.191Z,77.31
2023-03-13T13:11:55.403Z,78.14
2023-03-13T13:14:56.163Z,78.42
2023-03-13T13:17:46.443Z,78.65
2023-03-13T13:20:37.013Z,78.09
2023-03-13T13:23:42.038Z,77.12
2023-03-13T13:26:48.024Z,78.04
2023-03-13T13:29:39.740Z,77.72
2023-03-13T13:32:16.821Z,79.07
2023-03-13T13:34:55.988Z,78.52
2023-03-13T13:37:30.250Z,79.44
2023-03-13T13:40:19.573Z,78.75
2023-03-13T13:42:54.151Z,79.00
2023-03-13T13:45:28.600Z,79.64
2023-03-13T13:48:25.515Z,79.33
2023-03-13T13:51:18.888Z,78.27
2023-03-13T13:53:53.151Z,79.26
2023-03-13T13:56:46.992Z,79.05
2023-03-13T13:59:27.081Z,77.78
2023-03-13T14:02:15.595Z,77.74
2023-03-13T14:04:51.628Z,77.99
2023-03-13T14:07:30.845Z,77.62
2023-03-13T14:10:07.405Z,76.46
2023-03-13T14:12:40.603Z,77.41
2023-03-13T14:15:15.494Z,77.59
2023-03-13T14:17:49.292Z,77.84
2023-03-13T14:20:29.113Z,78.64
2023-03-13T14:23:03.158Z,78.59
2023-03-13T14:25:43.875Z,76.90
2023-03-13T14:28:17.645Z,78.26
2023-03-13T14:30:51.674Z,78.93
2023-03-13T14:33:25.275Z,79.06
2023-03-13T14:35:59.463Z,77.09
2023-03-13T14:38:32.972Z,77.05
2023-03-13T14:41:05.744Z,76.77
2023-03-13T14:43:42.296Z,76.14
2023-03-13T14:46:16.420Z,75.94
2023-03-13T14:48:49.612Z,75.28
2023-03-13T14:51:25.491Z,75.69
2023-03-13T14:53:58.800Z,75.85
2023-03-13T14:56:32.624Z,75.57
2023-03-13T14:59:17.529Z,75.52
2023-03-13T15:01:59.344Z,74.88
2023-03-13T15:04:50.914Z,75.44
2023-03-13T15:07:26.835Z,75.31
2023-03-13T15:10:00.815Z,76.24
2023-03-13T15:12:42.149Z,77.07
2023-03-13T15:15:15.320Z,77.07
2023-03-13T15:17:48.050Z,77.09
2023-03-13T15:20:23.075Z,77.11
2023-03-13T15:22:57.187Z,74.54
2023-03-13T15:25:29.980Z,75.24
2023-03-13T15:28:02.712Z,74.39
2023-03-13T15:30:35.478Z,74.18
2023-03-13T15:33:11.739Z,73.92
2023-03-13T15:35:45.034Z,74.23
2023-03-13T15:38:20.390Z,74.75
2023-03-13T15:40:53.539Z,74.77
2023-03-13T15:43:26.385Z,75.78
2023-03-13T15:45:59.223Z,75.61
2023-03-13T15:48:32.544Z,76.66
2023-03-13T15:51:05.481Z,75.16
2023-03-13T15:53:39.653Z,75.47
2023-03-13T15:56:15.403Z,76.37
2023-03-13T15:58:48.917Z,76.11
2023-03-13T16:01:23.216Z,76.36
2023-03-13T16:03:58.334Z,76.29
2023-03-13T16:06:32.404Z,77.52
2023-03-13T16:09:07.721Z,77.00
2023-03-13T16:11:40.439Z,77.44
2023-03-13T16:14:13.249Z,76.76
2023-03-13T16:16:45.999Z,76.12
2023-03-13T16:19:18.649Z,76.06
2023-03-13T16:21:52.720Z,75.59
2023-03-13T16:24:27.816Z,74.25
2023-03-13T16:27:00.507Z,75.31
2023-03-13T16:29:33.184Z,75.43
2023-03-13T16:32:06.056Z,76.04
2023-03-13T16:34:38.798Z,75.83
2023-03-13T16:37:12.648Z,76.33
2023-03-13T16:39:47.182Z,75.94
2023-03-13T16:42:19.895Z,74.63
2023-03-13T16:44:52.654Z,73.29
2023-03-13T16:47:28.684Z,73.34
2023-03-13T16:50:01.505Z,73.98
2023-03-13T16:52:34.312Z,73.77
2023-03-13T16:55:09.990Z,73.59
2023-03-13T16:57:43.076Z,73.07
2023-03-13T17:00:17.107Z,73.08
2023-03-13T17:02:50.132Z,72.52
2023-03-13T17:05:23.154Z,72.18
2023-03-13T17:07:56.470Z,72.48
2023-03-13T17:10:32.363Z,72.34
2023-03-13T17:13:06.675Z,72.14
2023-03-13T17:15:39.512Z,72.61
2023-03-13T17:18:12.993Z,72.24
2023-03-13T17:20:46.108Z,72.27
2023-03-13T17:23:18.859Z,71.93
2023-03-13T17:25:52.979Z,72.69
2023-03-13T17:28:25.637Z,72.68
2023-03-13T17:30:58.385Z,72.94
2023-03-13T17:33:31.186Z,73.47
2023-03-13T17:36:05.669Z,73.80
2023-03-13T17:38:38.364Z,73.09
2023-03-13T17:41:13.893Z,73.71
2023-03-13T17:43:46.604Z,73.55
2023-03-13T17:46:20.434Z,72.96
2023-03-13T17:48:54.345Z,72.52
2023-03-13T17:51:27.716Z,72.30
2023-03-13T17:54:01.079Z,73.79
2023-03-13T17:56:38.904Z,74.37
2023-03-13T17:59:12.725Z,72.78
2023-03-13T18:01:46.174Z,72.54
2023-03-13T18:04:18.891Z,72.26
2023-03-13T18:06:51.631Z,72.91
2023-03-13T18:09:24.304Z,72.26
2023-03-13T18:11:58.397Z,72.30
2023-03-13T18:14:31.699Z,71.64
2023-03-13T18:17:04.599Z,71.87
2023-03-13T18:19:37.307Z,71.56
2023-03-13T18:22:13.841Z,71.49
2023-03-13T18:24:46.747Z,71.29
2023-03-13T18:27:22.490Z,71.84
2023-03-13T18:29:55.225Z,71.08
2023-03-13T18:32:28.332Z,71.27
2023-03-13T18:35:01.340Z,72.46
2023-03-13T18:37:34.164Z,72.05
2023-03-13T18:40:13.154Z,71.24
2023-03-13T18:42:47.877Z,70.78
2023-03-13T18:45:21.592Z,71.39
2023-03-13T18:47:54.412Z,71.98
2023-03-13T18:50:28.224Z,71.81
2023-03-13T18:53:01.503Z,71.62
2023-03-13T18:55:34.160Z,71.69
2023-03-13T18:58:11.143Z,72.35
2023-03-13T19:00:43.939Z,72.33
2023-03-13T19:03:20.378Z,73.41
2023-03-13T19:05:53.587Z,73.78
2023-03-13T19:08:26.395Z,75.67
2023-03-13T19:10:59.432Z,74.69
2023-03-13T19:13:38.357Z,74.51
2023-03-13T19:16:14.952Z,75.79
2023-03-13T19:18:48.114Z,75.13
2023-03-13T19:21:22.162Z,74.74
2023-03-13T19:23:55.251Z,75.06
2023-03-13T19:26:28.896Z,74.89
2023-03-13T19:29:03.369Z,74.58
2023-03-13T19:31:36.173Z,74.29
2023-03-13T19:34:09.164Z,74.52
2023-03-13T19:36:44.901Z,74.12
2023-03-13T19:39:18.488Z,73.77
2023-03-13T19:41:51.477Z,74.01
2023-03-13T19:44:25.613Z,73.98
2023-03-13T19:46:58.446Z,73.86
2023-03-13T19:49:32.000Z,73.43
2023-03-13T19:52:04.820Z,72.93
2023-03-13T19:54:37.552Z,73.45
2023-03-13T19:57:11.278Z,73.62
2023-03-13T19:59:45.344Z,73.64
2023-03-13T20:02:18.125Z,74.19
2023-03-13T20:04:50.950Z,74.50
2023-03-13T20:07:23.657Z,74.69
2023-03-13T20:09:56.373Z,75.89
2023-03-13T20:12:29.049Z,75.70
2023-03-13T20:15:03.301Z,73.23
2023-03-13T20:17:35.944Z,73.76
2023-03-13T20:20:09.846Z,76.10
2023-03-13T20:22:42.599Z,76.27
2023-03-13T20:25:16.085Z,77.36
2023-03-13T20:27:48.813Z,77.23
2023-03-13T20:30:24.087Z,75.88
2023-03-13T20:32:59.972Z,66.42
2023-03-13T20:35:33.230Z,68.27
2023-03-13T20:38:06.141Z,66.75
2023-03-13T20:40:38.802Z,70.01
2023-03-13T20:43:11.413Z,68.78
2023-03-13T20:45:45.855Z,70.07
2023-03-13T20:48:19.043Z,68.14
2023-03-13T20:50:53.302Z,68.20
2023-03-13T20:53:26.206Z,70.18
2023-03-13T20:55:59.314Z,70.50
2023-03-13T20:58:32.087Z,70.97
2023-03-13T21:01:06.866Z,70.93
2023-03-13T21:03:39.848Z,70.25
2023-03-13T21:06:13.842Z,72.66
2023-03-13T21:08:47.052Z,72.47
2023-03-13T21:11:21.044Z,72.37
2023-03-13T21:13:53.829Z,72.01
2023-03-13T21:16:28.773Z,73.12
2023-03-13T21:19:01.594Z,73.23
2023-03-13T21:21:34.447Z,74.07
2023-03-13T21:24:07.793Z,74.18
2023-03-13T21:26:40.528Z,74.54
2023-03-13T21:29:13.283Z,74.87
2023-03-13T21:31:47.558Z,75.38
2023-03-13T21:34:20.376Z,75.64
2023-03-13T21:36:53.093Z,76.18
2023-03-13T21:39:25.922Z,76.29
2023-03-13T21:42:00.133Z,76.25
2023-03-13T21:44:32.996Z,76.75
2023-03-13T21:47:07.302Z,77.00
2023-03-13T21:49:40.200Z,77.00
2023-03-13T21:52:12.986Z,76.82
2023-03-13T21:54:46.397Z,77.10
2023-03-13T21:57:19.149Z,76.90
2023-03-13T21:59:52.011Z,77.04
2023-03-13T22:02:26.111Z,77.32
2023-03-13T22:04:58.940Z,77.15
2023-03-13T22:07:31.769Z,77.83
2023-03-13T22:10:05.051Z,78.17
2023-03-13T22:12:38.251Z,77.92
2023-03-13T22:15:11.744Z,78.17
2023-03-13T22:17:46.016Z,78.49
2023-03-13T22:20:19.112Z,78.34
2023-03-13T22:22:52.700Z,77.97
2023-03-13T22:25:25.433Z,77.93
2023-03-13T22:27:58.217Z,78.23
2023-03-13T22:30:31.061Z,77.98
2023-03-13T22:33:06.917Z,78.09
2023-03-13T22:35:39.681Z,77.96
2023-03-13T22:38:12.481Z,78.29
2023-03-13T22:40:45.575Z,77.92
2023-03-13T22:43:18.591Z,78.07
2023-03-13T22:45:51.726Z,77.81
2023-03-13T22:48:26.349Z,77.63
2023-03-13T22:50:59.838Z,77.78
2023-03-13T22:53:33.735Z,77.66
2023-03-13T22:56:11.222Z,77.61
2023-03-13T22:58:44.128Z,77.65
2023-03-13T23:01:28.313Z,77.25
2023-03-13T23:04:02.924Z,75.84
2023-03-13T23:06:36.153Z,76.07
2023-03-13T23:09:08.922Z,76.71
2023-03-13T23:11:41.639Z,76.53
2023-03-13T23:14:14.654Z,76.15
2023-03-13T23:16:47.551Z,76.28
2023-03-13T23:19:22.375Z,76.38
2023-03-13T23:21:55.317Z,76.53
2023-03-13T23:24:28.384Z,76.74
2023-03-13T23:27:01.261Z,77.04
2023-03-13T23:29:34.573Z,77.28
2023-03-13T23:32:07.490Z,77.83
2023-03-13T23:34:41.658Z,78.03
2023-03-13T23:37:14.475Z,77.96
2023-03-13T23:39:47.584Z,78.44
2023-03-13T23:42:20.596Z,78.70
2023-03-13T23:44:53.706Z,78.78
2023-03-13T23:47:28.492Z,78.37
2023-03-13T23:50:05.582Z,78.70
2023-03-13T23:52:38.539Z,78.69
2023-03-13T23:55:12.103Z,79.11
2023-03-13T23:57:44.841Z,79.39
